Terminal Aerodrome Forecast
Issued by NWS

Home | Current Version | Previous Version | Text Only | Print | Product List | Glossary On
Versions: 1 2 3 4 5 6 7 8 9 10 11 12 13 14
122
FTUS44 KJAN 220605 RRA
TAFHKS
TAF
KHKS 220605Z 2206/2306 20008KT P6SM SCT040
     FM221200 21010KT P6SM -TSRA OVC050CB
     FM221800 25014G22KT P6SM -SHRA BKN050
     FM230100 30014G22KT 6SM BR BKN025=

USA.gov is the U.S. government's official web portal to all federal, state and local government web resources and services.